createdAt,value
2022-09-28T00:02:11.634Z,9.60
2022-09-28T00:04:39.364Z,9.50
2022-09-28T00:07:07.030Z,9.50
2022-09-28T00:09:34.679Z,9.60
2022-09-28T00:12:02.578Z,9.60
2022-09-28T00:14:32.571Z,9.60
2022-09-28T00:17:00.224Z,9.60
2022-09-28T00:19:27.900Z,9.60
2022-09-28T00:21:55.579Z,9.70
2022-09-28T00:24:27.481Z,9.60
2022-09-28T00:26:56.657Z,9.60
2022-09-28T00:29:25.008Z,9.50
2022-09-28T00:31:57.014Z,9.60
2022-09-28T00:34:25.330Z,9.70
2022-09-28T00:36:53.316Z,9.60
2022-09-28T00:39:21.450Z,9.70
2022-09-28T00:41:49.391Z,9.70
2022-09-28T00:44:34.374Z,9.60
2022-09-28T00:47:04.799Z,9.60
2022-09-28T00:49:33.800Z,9.60
2022-09-28T00:52:02.931Z,9.60
2022-09-28T00:54:30.592Z,9.60
2022-09-28T00:56:58.674Z,9.60
2022-09-28T00:59:26.970Z,9.60
2022-09-28T01:01:54.685Z,9.50
2022-09-28T01:04:28.031Z,9.60
2022-09-28T01:06:58.233Z,9.50
2022-09-28T01:09:26.983Z,9.60
2022-09-28T01:11:55.122Z,9.50
2022-09-28T01:14:25.608Z,9.50
2022-09-28T01:16:58.415Z,9.60
2022-09-28T01:19:38.594Z,9.60
2022-09-28T01:22:12.514Z,9.60
2022-09-28T01:24:43.017Z,9.60
2022-09-28T01:27:14.522Z,9.70
2022-09-28T01:29:48.031Z,9.70
2022-09-28T01:32:24.891Z,9.70
2022-09-28T01:34:55.782Z,9.70
2022-09-28T01:37:26.426Z,9.80
2022-09-28T01:39:54.983Z,9.90
2022-09-28T01:42:25.585Z,10.00
2022-09-28T01:44:55.534Z,9.90
2022-09-28T01:47:24.933Z,9.80
2022-09-28T01:49:56.189Z,9.90
2022-09-28T01:52:27.782Z,9.80
2022-09-28T01:54:57.839Z,9.80
2022-09-28T01:57:29.902Z,9.90
2022-09-28T02:00:00.864Z,9.90
2022-09-28T02:02:32.390Z,9.90
2022-09-28T02:05:02.891Z,9.90
2022-09-28T02:07:34.187Z,10.00
2022-09-28T02:10:04.435Z,10.00
2022-09-28T02:12:35.983Z,10.00
2022-09-28T02:15:07.669Z,10.10
2022-09-28T02:17:35.358Z,9.90
2022-09-28T02:20:03.291Z,10.00
2022-09-28T02:22:34.484Z,10.20
2022-09-28T02:25:07.636Z,10.20
2022-09-28T02:27:38.761Z,10.30
2022-09-28T02:30:06.966Z,10.40
2022-09-28T02:32:40.066Z,10.40
2022-09-28T02:35:08.610Z,10.30
2022-09-28T02:37:36.273Z,10.30
2022-09-28T02:40:05.141Z,10.30
2022-09-28T02:42:36.036Z,10.40
2022-09-28T02:45:16.384Z,10.40
2022-09-28T02:47:53.046Z,10.40
2022-09-28T02:50:25.542Z,10.50
2022-09-28T02:53:02.351Z,10.40
2022-09-28T02:55:35.843Z,10.20
2022-09-28T02:58:14.959Z,10.20
2022-09-28T03:00:45.952Z,10.20
2022-09-28T03:03:19.027Z,10.30
2022-09-28T03:05:52.582Z,10.40
2022-09-28T03:08:23.301Z,10.50
2022-09-28T03:10:53.630Z,10.50
2022-09-28T03:13:21.498Z,10.30
2022-09-28T03:15:50.512Z,10.30
2022-09-28T03:18:18.350Z,10.20
2022-09-28T03:20:46.825Z,10.10
2022-09-28T03:23:29.684Z,10.20
2022-09-28T03:25:57.367Z,10.30
2022-09-28T03:28:25.786Z,10.30
2022-09-28T03:30:55.068Z,10.30
2022-09-28T03:33:23.187Z,10.30
2022-09-28T03:35:51.304Z,10.30
2022-09-28T03:38:19.292Z,10.20
2022-09-28T03:40:53.290Z,10.20
2022-09-28T03:43:21.105Z,10.30
2022-09-28T03:45:52.544Z,10.40
2022-09-28T03:48:26.654Z,10.40
2022-09-28T03:50:57.086Z,10.40
2022-09-28T03:53:25.073Z,10.40
2022-09-28T03:55:53.307Z,10.40
2022-09-28T03:58:21.187Z,10.30
2022-09-28T04:00:48.950Z,10.30
2022-09-28T04:03:16.852Z,10.10
2022-09-28T04:05:50.924Z,9.80
2022-09-28T04:08:18.722Z,9.70
2022-09-28T04:10:46.421Z,9.50
2022-09-28T04:13:14.226Z,9.40
2022-09-28T04:15:41.878Z,9.30
2022-09-28T04:18:10.467Z,9.20
2022-09-28T04:20:40.888Z,9.20
2022-09-28T04:23:10.437Z,9.10
2022-09-28T04:25:39.564Z,9.00
2022-09-28T04:28:24.926Z,9.00
2022-09-28T04:30:52.562Z,8.80
2022-09-28T04:33:20.207Z,8.80
2022-09-28T04:35:47.872Z,8.70
2022-09-28T04:38:23.480Z,8.70
2022-09-28T04:41:03.422Z,8.80
2022-09-28T04:43:31.130Z,8.70
2022-09-28T04:45:59.784Z,8.70
2022-09-28T04:48:27.682Z,8.70
2022-09-28T04:50:55.685Z,8.70
2022-09-28T04:53:25.055Z,8.70
2022-09-28T04:55:56.155Z,8.60
2022-09-28T04:58:23.981Z,8.60
2022-09-28T05:00:53.344Z,8.60
2022-09-28T05:03:21.799Z,8.60
2022-09-28T05:05:49.897Z,8.60
2022-09-28T05:08:18.112Z,8.60
2022-09-28T05:10:47.366Z,8.60
2022-09-28T05:13:15.474Z,8.60
2022-09-28T05:15:43.207Z,8.50
2022-09-28T05:18:10.900Z,8.50
2022-09-28T05:20:41.060Z,8.50
2022-09-28T05:23:10.351Z,8.50
2022-09-28T05:25:37.981Z,8.50
2022-09-28T05:28:07.079Z,8.50
2022-09-28T05:30:35.062Z,8.50
2022-09-28T05:33:02.862Z,8.50
2022-09-28T05:35:30.643Z,8.50
2022-09-28T05:38:03.180Z,8.50
2022-09-28T05:40:31.005Z,8.50
2022-09-28T05:42:59.966Z,8.50
2022-09-28T05:45:29.022Z,8.50
2022-09-28T05:47:56.869Z,8.50
2022-09-28T05:50:24.767Z,8.40
2022-09-28T05:52:59.387Z,8.40
2022-09-28T05:55:27.060Z,8.40
2022-09-28T05:57:54.793Z,8.80
2022-09-28T06:00:22.784Z,8.70
2022-09-28T06:02:59.037Z,8.60
2022-09-28T06:05:27.157Z,8.60
2022-09-28T06:07:56.136Z,8.60
2022-09-28T06:10:24.314Z,8.50
2022-09-28T06:12:55.083Z,8.60
2022-09-28T06:15:22.821Z,8.60
2022-09-28T06:17:56.471Z,8.60
2022-09-28T06:20:26.846Z,8.60
2022-09-28T06:22:54.734Z,8.60
2022-09-28T06:25:22.863Z,8.60
2022-09-28T06:27:56.953Z,8.70
2022-09-28T06:30:27.211Z,8.70
2022-09-28T06:32:56.225Z,8.70
2022-09-28T06:35:25.347Z,8.70
2022-09-28T06:37:54.790Z,8.70
2022-09-28T06:40:22.857Z,8.70
2022-09-28T06:42:55.900Z,8.70
2022-09-28T06:45:25.303Z,8.80
2022-09-28T06:47:57.357Z,8.80
2022-09-28T06:50:25.433Z,8.90
2022-09-28T06:52:54.760Z,8.90
2022-09-28T06:55:22.721Z,9.00
2022-09-28T06:57:58.349Z,9.10
2022-09-28T07:00:26.068Z,9.10
2022-09-28T07:02:53.710Z,9.20
2022-09-28T07:05:26.901Z,9.30
2022-09-28T07:07:56.228Z,9.40
2022-09-28T07:10:24.264Z,9.50
2022-09-28T07:12:52.025Z,9.60
2022-09-28T07:15:19.697Z,9.60
2022-09-28T07:17:58.520Z,9.70
2022-09-28T07:20:28.794Z,9.80
2022-09-28T07:23:08.943Z,9.90
2022-09-28T07:25:45.420Z,9.90
2022-09-28T07:28:13.111Z,9.90
2022-09-28T07:30:40.931Z,10.00
2022-09-28T07:33:09.047Z,10.10
2022-09-28T07:35:36.700Z,10.10
2022-09-28T07:38:06.520Z,10.20
2022-09-28T07:40:52.440Z,10.30
2022-09-28T07:43:21.363Z,10.40
2022-09-28T07:45:49.416Z,10.40
2022-09-28T07:48:18.668Z,10.50
2022-09-28T07:50:50.128Z,10.50
2022-09-28T07:53:19.251Z,10.60
2022-09-28T07:55:51.256Z,10.50
2022-09-28T07:58:19.581Z,10.60
2022-09-28T08:00:48.049Z,10.60
2022-09-28T08:03:16.294Z,10.70
2022-09-28T08:05:43.967Z,10.80
2022-09-28T08:08:12.551Z,11.00
2022-09-28T08:10:46.525Z,11.00
2022-09-28T08:13:16.516Z,11.10
2022-09-28T08:15:44.158Z,11.40
2022-09-28T08:18:11.805Z,11.60
2022-09-28T08:20:57.042Z,11.80
2022-09-28T08:23:24.707Z,12.00
2022-09-28T08:25:54.842Z,12.10
2022-09-28T08:28:23.135Z,12.00
2022-09-28T08:30:51.151Z,12.10
2022-09-28T08:33:20.271Z,12.10
2022-09-28T08:35:48.226Z,12.40
2022-09-28T08:38:16.166Z,12.70
2022-09-28T08:40:48.881Z,12.70
2022-09-28T08:43:23.946Z,12.80
2022-09-28T08:45:51.958Z,12.70
2022-09-28T08:48:39.278Z,12.90
2022-09-28T08:51:11.407Z,13.30
2022-09-28T08:53:43.137Z,13.50
2022-09-28T08:56:13.060Z,13.60
2022-09-28T08:58:44.058Z,13.70
2022-09-28T09:01:16.825Z,13.50
2022-09-28T09:03:45.470Z,13.60
2022-09-28T09:06:20.390Z,13.60
2022-09-28T09:08:53.199Z,13.50
2022-09-28T09:11:27.916Z,13.10
2022-09-28T09:14:14.303Z,13.00
2022-09-28T09:16:45.925Z,12.70
2022-09-28T09:19:17.010Z,12.60
2022-09-28T09:21:48.714Z,12.70
2022-09-28T09:24:24.675Z,12.70
2022-09-28T09:26:56.766Z,12.80
2022-09-28T09:29:31.508Z,13.20
2022-09-28T09:32:06.212Z,13.60
2022-09-28T09:34:50.748Z,13.90
2022-09-28T09:37:25.994Z,14.10
2022-09-28T09:40:05.559Z,14.00
2022-09-28T09:42:39.793Z,14.10
2022-09-28T09:45:18.469Z,14.00
2022-09-28T09:47:47.962Z,13.90
2022-09-28T09:50:25.059Z,13.80
2022-09-28T09:52:55.743Z,13.50
2022-09-28T09:55:30.071Z,13.20
2022-09-28T09:58:00.654Z,13.10
2022-09-28T10:00:29.765Z,13.00
2022-09-28T10:02:58.187Z,12.90
2022-09-28T10:05:28.012Z,12.70
2022-09-28T10:07:56.975Z,12.60
2022-09-28T10:10:27.034Z,12.60
2022-09-28T10:12:55.006Z,12.60
2022-09-28T10:15:24.706Z,12.60
2022-09-28T10:17:54.368Z,12.60
2022-09-28T10:20:22.971Z,12.50
2022-09-28T10:22:50.923Z,12.50
2022-09-28T10:25:19.124Z,12.60
2022-09-28T10:27:49.281Z,12.70
2022-09-28T10:30:19.125Z,12.70
2022-09-28T10:32:47.650Z,12.90
2022-09-28T10:35:23.133Z,13.00
2022-09-28T10:37:54.158Z,13.20
2022-09-28T10:40:34.524Z,13.30
2022-09-28T10:43:03.446Z,13.40
2022-09-28T10:45:35.230Z,13.40
2022-09-28T10:48:05.764Z,13.50
2022-09-28T10:50:35.449Z,13.40
2022-09-28T10:53:13.284Z,13.30
2022-09-28T10:55:40.952Z,13.30
2022-09-28T10:58:26.249Z,13.30
2022-09-28T11:00:59.692Z,13.30
2022-09-28T11:03:28.219Z,13.30
2022-09-28T11:05:58.584Z,13.30
2022-09-28T11:08:27.737Z,13.30
2022-09-28T11:11:06.709Z,13.30
2022-09-28T11:13:39.263Z,13.30
2022-09-28T11:16:07.138Z,13.30
2022-09-28T11:18:34.980Z,13.50
2022-09-28T11:21:13.142Z,13.60
2022-09-28T11:23:42.064Z,13.70
2022-09-28T11:26:17.616Z,13.90
2022-09-28T11:28:51.169Z,14.20
2022-09-28T11:31:25.091Z,14.30
2022-09-28T11:34:02.004Z,14.20
2022-09-28T11:36:35.563Z,14.10
2022-09-28T11:39:08.254Z,14.10
2022-09-28T11:41:44.626Z,14.30
2022-09-28T11:44:22.307Z,14.40
2022-09-28T11:46:52.972Z,14.30
2022-09-28T11:49:28.315Z,14.10
2022-09-28T11:51:58.111Z,14.00
2022-09-28T11:54:28.848Z,13.90
2022-09-28T11:56:58.754Z,13.70
2022-09-28T11:59:28.492Z,13.70
2022-09-28T12:01:57.715Z,13.70
2022-09-28T12:04:27.468Z,13.60
2022-09-28T12:06:59.244Z,13.70
2022-09-28T12:09:31.513Z,14.10
2022-09-28T12:12:01.578Z,14.50
2022-09-28T12:14:30.448Z,14.70
2022-09-28T12:17:06.974Z,14.80
2022-09-28T12:19:39.566Z,14.80
2022-09-28T12:22:13.167Z,14.60
2022-09-28T12:24:43.196Z,14.60
2022-09-28T12:27:15.405Z,14.50
2022-09-28T12:29:47.458Z,14.50
2022-09-28T12:32:17.366Z,14.50
2022-09-28T12:34:45.008Z,14.30
2022-09-28T12:37:26.010Z,14.00
2022-09-28T12:40:04.576Z,13.80
2022-09-28T12:42:44.241Z,13.80
2022-09-28T12:45:24.595Z,13.70
2022-09-28T12:48:10.373Z,13.70
2022-09-28T12:50:45.698Z,13.80
2022-09-28T12:53:27.625Z,13.80
2022-09-28T12:56:00.038Z,14.00
2022-09-28T12:58:34.326Z,14.00
2022-09-28T13:01:08.402Z,13.80
2022-09-28T13:03:46.352Z,13.80
2022-09-28T13:06:20.616Z,13.80
2022-09-28T13:08:56.244Z,14.00
2022-09-28T13:11:31.816Z,14.10
2022-09-28T13:14:09.040Z,14.20
2022-09-28T13:16:40.239Z,14.20
2022-09-28T13:19:13.003Z,14.10
2022-09-28T13:21:44.630Z,14.10
2022-09-28T13:24:31.649Z,14.00
2022-09-28T13:27:04.405Z,14.00
2022-09-28T13:29:34.835Z,13.90
2022-09-28T13:32:04.076Z,14.00
2022-09-28T13:34:33.181Z,14.00
2022-09-28T13:37:09.787Z,14.00
2022-09-28T13:39:52.632Z,14.00
2022-09-28T13:42:30.200Z,13.90
2022-09-28T13:45:12.729Z,14.00
2022-09-28T13:47:49.699Z,14.20
2022-09-28T13:50:22.207Z,14.20
2022-09-28T13:52:53.369Z,14.40
2022-09-28T13:55:36.149Z,14.50
2022-09-28T13:58:05.419Z,14.50
2022-09-28T14:00:36.533Z,14.70
2022-09-28T14:03:11.638Z,14.80
2022-09-28T14:05:46.957Z,14.90
2022-09-28T14:08:33.584Z,15.30
2022-09-28T14:11:25.531Z,15.70
2022-09-28T14:14:01.238Z,15.60
2022-09-28T14:16:31.034Z,15.50
2022-09-28T14:19:00.896Z,15.30
2022-09-28T14:21:48.719Z,15.20
2022-09-28T14:24:22.353Z,15.30
2022-09-28T14:27:17.101Z,15.10
2022-09-28T14:29:46.489Z,14.90
2022-09-28T14:32:24.944Z,14.70
2022-09-28T14:35:00.504Z,14.60
2022-09-28T14:37:46.928Z,14.60
2022-09-28T14:40:35.954Z,14.50
2022-09-28T14:43:24.390Z,14.20
2022-09-28T14:46:14.411Z,14.00
2022-09-28T14:48:44.080Z,13.90
2022-09-28T14:51:37.847Z,13.70
2022-09-28T14:54:06.609Z,13.60
2022-09-28T14:56:39.939Z,13.40
2022-09-28T14:59:08.511Z,13.30
2022-09-28T15:01:37.764Z,13.20
2022-09-28T15:04:10.326Z,13.20
2022-09-28T15:06:45.374Z,13.30
2022-09-28T15:09:27.181Z,13.50
2022-09-28T15:11:59.528Z,13.40
2022-09-28T15:14:27.944Z,13.40
2022-09-28T15:16:58.264Z,13.50
2022-09-28T15:19:31.468Z,13.80
2022-09-28T15:21:59.939Z,13.70
2022-09-28T15:24:28.757Z,13.70
2022-09-28T15:26:56.945Z,13.70
2022-09-28T15:29:27.103Z,13.70
2022-09-28T15:31:54.901Z,13.80
2022-09-28T15:34:51.726Z,13.90
2022-09-28T15:37:21.888Z,14.00
2022-09-28T15:39:50.513Z,14.00
2022-09-28T15:42:18.776Z,13.90
2022-09-28T15:45:03.350Z,13.80
2022-09-28T15:47:31.821Z,13.70
2022-09-28T15:50:02.514Z,13.60
2022-09-28T15:52:35.279Z,13.20
2022-09-28T15:55:05.148Z,13.20
2022-09-28T15:57:35.347Z,13.20
2022-09-28T16:00:03.438Z,13.10
2022-09-28T16:02:31.233Z,13.20
2022-09-28T16:05:00.719Z,13.20
2022-09-28T16:07:38.402Z,13.20
2022-09-28T16:10:26.836Z,13.20
2022-09-28T16:12:56.440Z,13.20
2022-09-28T16:15:25.103Z,13.20
2022-09-28T16:17:54.829Z,13.10
2022-09-28T16:20:27.579Z,13.10
2022-09-28T16:22:59.417Z,13.10
2022-09-28T16:25:27.626Z,13.10
2022-09-28T16:27:56.067Z,13.10
2022-09-28T16:30:25.252Z,13.10
2022-09-28T16:32:53.827Z,13.10
2022-09-28T16:35:26.407Z,13.00
2022-09-28T16:37:59.983Z,12.90
2022-09-28T16:40:28.295Z,12.80
2022-09-28T16:42:58.198Z,12.80
2022-09-28T16:45:25.891Z,12.80
2022-09-28T16:47:56.355Z,12.80
2022-09-28T16:50:24.547Z,12.80
2022-09-28T16:53:15.310Z,12.80
2022-09-28T16:55:44.520Z,12.70
2022-09-28T16:58:13.020Z,12.70
2022-09-28T17:00:43.368Z,12.80
2022-09-28T17:03:13.615Z,12.80
2022-09-28T17:05:41.291Z,12.70
2022-09-28T17:08:12.049Z,12.70
2022-09-28T17:11:02.535Z,12.70
2022-09-28T17:13:33.902Z,12.70
2022-09-28T17:16:02.998Z,12.60
2022-09-28T17:18:31.881Z,12.60
2022-09-28T17:21:03.181Z,12.60
2022-09-28T17:23:30.842Z,12.50
2022-09-28T17:25:58.939Z,12.50
2022-09-28T17:28:27.337Z,12.50
2022-09-28T17:30:56.454Z,12.50
2022-09-28T17:33:24.138Z,12.40
2022-09-28T17:35:52.992Z,12.40
2022-09-28T17:38:20.679Z,12.30
2022-09-28T17:40:48.361Z,12.20
2022-09-28T17:43:16.078Z,12.10
2022-09-28T17:45:45.756Z,11.80
2022-09-28T17:48:16.086Z,11.70
2022-09-28T17:50:46.404Z,11.70
2022-09-28T17:53:14.675Z,11.70
2022-09-28T17:55:43.004Z,11.70
2022-09-28T17:58:15.202Z,11.60
2022-09-28T18:00:43.249Z,11.70
2022-09-28T18:03:13.881Z,11.80
2022-09-28T18:05:43.335Z,11.70
2022-09-28T18:08:13.145Z,11.80
2022-09-28T18:10:40.811Z,11.80
2022-09-28T18:13:08.575Z,11.70
2022-09-28T18:15:36.611Z,11.70
2022-09-28T18:18:04.422Z,11.70
2022-09-28T18:20:32.366Z,11.60
2022-09-28T18:23:01.362Z,11.50
2022-09-28T18:25:29.610Z,11.60
2022-09-28T18:27:59.878Z,11.60
2022-09-28T18:30:28.502Z,11.60
2022-09-28T18:32:56.179Z,11.60
2022-09-28T18:35:23.974Z,11.60
2022-09-28T18:37:51.753Z,11.60
2022-09-28T18:40:21.717Z,11.60
2022-09-28T18:42:50.447Z,11.50
2022-09-28T18:45:18.567Z,11.50
2022-09-28T18:47:46.763Z,11.60
2022-09-28T18:50:15.400Z,11.60
2022-09-28T18:52:44.060Z,11.50
2022-09-28T18:55:12.524Z,11.60
2022-09-28T18:57:42.275Z,11.60
2022-09-28T19:00:11.200Z,11.50
2022-09-28T19:02:39.175Z,11.50
2022-09-28T19:05:07.477Z,11.50
2022-09-28T19:07:35.238Z,11.50
2022-09-28T19:10:02.930Z,11.50
2022-09-28T19:12:30.611Z,11.50
2022-09-28T19:15:00.306Z,11.50
2022-09-28T19:17:27.962Z,11.50
2022-09-28T19:19:55.645Z,11.50
2022-09-28T19:22:23.285Z,11.40
2022-09-28T19:24:50.967Z,11.40
2022-09-28T19:27:18.775Z,11.40
2022-09-28T19:29:46.441Z,11.40
2022-09-28T19:32:15.465Z,11.40
2022-09-28T19:34:43.153Z,11.30
2022-09-28T19:37:10.823Z,11.30
2022-09-28T19:39:38.509Z,11.30
2022-09-28T19:42:06.315Z,11.30
2022-09-28T19:44:35.645Z,11.30
2022-09-28T19:47:06.543Z,11.30
2022-09-28T19:49:37.120Z,11.20
2022-09-28T19:52:20.773Z,11.20
2022-09-28T19:54:56.369Z,11.20
2022-09-28T19:57:25.837Z,11.20
2022-09-28T19:59:57.830Z,11.20
2022-09-28T20:02:28.903Z,11.20
2022-09-28T20:04:57.995Z,11.20
2022-09-28T20:07:25.754Z,11.20
2022-09-28T20:09:53.434Z,11.10
2022-09-28T20:12:21.139Z,11.10
2022-09-28T20:14:48.816Z,11.00
2022-09-28T20:17:16.540Z,11.00
2022-09-28T20:19:44.203Z,11.00
2022-09-28T20:22:13.236Z,10.90
2022-09-28T20:24:40.975Z,10.90
2022-09-28T20:27:08.630Z,10.90
2022-09-28T20:29:36.314Z,10.80
2022-09-28T20:32:04.742Z,10.80
2022-09-28T20:34:33.381Z,10.90
2022-09-28T20:37:01.110Z,11.00
2022-09-28T20:39:30.220Z,11.10
2022-09-28T20:41:58.010Z,11.10
2022-09-28T20:44:25.685Z,11.10
2022-09-28T20:46:53.379Z,11.20
2022-09-28T20:49:21.593Z,11.20
2022-09-28T20:51:49.294Z,11.20
2022-09-28T20:54:17.747Z,11.20
2022-09-28T20:56:48.135Z,11.20
2022-09-28T20:59:16.098Z,11.10
2022-09-28T21:01:44.122Z,11.10
2022-09-28T21:04:12.003Z,10.70
2022-09-28T21:06:40.307Z,10.50
2022-09-28T21:09:08.658Z,10.60
2022-09-28T21:11:36.594Z,10.70
2022-09-28T21:14:06.492Z,10.70
2022-09-28T21:16:35.063Z,10.80
2022-09-28T21:19:02.801Z,11.00
2022-09-28T21:21:30.510Z,11.10
2022-09-28T21:23:58.754Z,11.10
2022-09-28T21:26:27.821Z,11.10
2022-09-28T21:28:55.885Z,11.20
2022-09-28T21:31:28.780Z,11.20
2022-09-28T21:33:56.991Z,11.10
2022-09-28T21:36:24.709Z,11.20
2022-09-28T21:38:52.758Z,11.10
2022-09-28T21:41:20.426Z,11.10
2022-09-28T21:43:48.124Z,11.00
2022-09-28T21:46:16.049Z,10.90
2022-09-28T21:48:45.207Z,10.90
2022-09-28T21:51:14.409Z,10.90
2022-09-28T21:53:42.548Z,11.00
2022-09-28T21:56:11.845Z,10.90
2022-09-28T21:58:39.982Z,10.70
2022-09-28T22:01:08.639Z,10.70
2022-09-28T22:03:36.964Z,10.70
2022-09-28T22:06:06.470Z,10.70
2022-09-28T22:08:34.757Z,10.70
2022-09-28T22:11:03.398Z,10.70
2022-09-28T22:13:31.605Z,10.70
2022-09-28T22:15:59.726Z,10.70
2022-09-28T22:18:28.383Z,10.70
2022-09-28T22:20:59.365Z,10.60
2022-09-28T22:23:28.564Z,10.60
2022-09-28T22:26:00.285Z,10.50
2022-09-28T22:28:28.555Z,10.30
2022-09-28T22:30:56.524Z,10.10
2022-09-28T22:33:24.570Z,10.00
2022-09-28T22:35:52.316Z,9.80
2022-09-28T22:38:20.359Z,9.90
2022-09-28T22:40:50.107Z,9.80
2022-09-28T22:43:18.676Z,9.90
2022-09-28T22:45:46.535Z,9.90
2022-09-28T22:48:14.358Z,10.00
2022-09-28T22:50:48.756Z,10.10
2022-09-28T22:53:16.551Z,10.00
2022-09-28T22:55:44.281Z,10.00
2022-09-28T22:58:13.474Z,10.00
2022-09-28T23:00:41.191Z,10.00
2022-09-28T23:03:08.907Z,10.00
2022-09-28T23:05:36.684Z,10.00
2022-09-28T23:08:04.755Z,10.00
2022-09-28T23:10:32.429Z,10.00
2022-09-28T23:13:00.119Z,10.00
2022-09-28T23:15:29.735Z,10.00
2022-09-28T23:17:57.422Z,9.80
2022-09-28T23:20:25.428Z,9.80
2022-09-28T23:22:53.141Z,9.70
2022-09-28T23:25:20.827Z,9.70
2022-09-28T23:27:48.933Z,9.80
2022-09-28T23:30:17.592Z,9.70
2022-09-28T23:32:46.719Z,9.70
2022-09-28T23:35:14.657Z,9.80
2022-09-28T23:37:42.362Z,9.70
2022-09-28T23:40:10.411Z,9.80
2022-09-28T23:42:38.166Z,9.70
2022-09-28T23:45:06.125Z,9.70
2022-09-28T23:47:34.007Z,9.60
2022-09-28T23:50:03.057Z,9.60
2022-09-28T23:52:31.006Z,9.60
2022-09-28T23:54:58.686Z,9.60
2022-09-28T23:57:26.371Z,9.60
2022-09-28T23:59:54.082Z,9.60
